sensor_id;sensor_type;location;lat;lon;timestamp;noise_LAeq;noise_LA_min;noise_LA_max;noise_LA01;noise_LA95
60503;Laerm;51448;51.660;5.824;2024-01-25T00:01:25;33.26;31.40;40.10;;
60503;Laerm;51448;51.660;5.824;2024-01-25T00:03:53;33.54;30.89;55.87;;
60503;Laerm;51448;51.660;5.824;2024-01-25T00:06:21;32.93;30.61;46.64;;
60503;Laerm;51448;51.660;5.824;2024-01-25T00:08:48;34.39;30.56;49.51;;
60503;Laerm;51448;51.660;5.824;2024-01-25T00:11:17;33.48;30.71;43.97;;
60503;Laerm;51448;51.660;5.824;2024-01-25T00:13:45;32.98;30.86;48.36;;
60503;Laerm;51448;51.660;5.824;2024-01-25T00:16:12;32.43;30.35;39.93;;
60503;Laerm;51448;51.660;5.824;2024-01-25T00:18:40;33.08;30.86;38.14;;
60503;Laerm;51448;51.660;5.824;2024-01-25T00:21:08;33.16;30.65;37.57;;
60503;Laerm;51448;51.660;5.824;2024-01-25T00:23:35;33.95;31.15;47.24;;
60503;Laerm;51448;51.660;5.824;2024-01-25T00:26:03;33.03;31.15;37.31;;
60503;Laerm;51448;51.660;5.824;2024-01-25T00:28:31;34.26;31.02;51.34;;
60503;Laerm;51448;51.660;5.824;2024-01-25T00:30:58;34.64;31.41;45.62;;
60503;Laerm;51448;51.660;5.824;2024-01-25T00:33:26;34.00;31.03;44.31;;
60503;Laerm;51448;51.660;5.824;2024-01-25T00:35:54;32.48;30.77;34.92;;
60503;Laerm;51448;51.660;5.824;2024-01-25T00:38:22;35.15;30.23;47.98;;
60503;Laerm;51448;51.660;5.824;2024-01-25T00:40:50;32.99;30.64;43.31;;
60503;Laerm;51448;51.660;5.824;2024-01-25T00:43:18;38.24;31.32;52.44;;
60503;Laerm;51448;51.660;5.824;2024-01-25T00:45:46;32.97;30.73;38.92;;
60503;Laerm;51448;51.660;5.824;2024-01-25T00:48:14;33.42;30.84;42.76;;
60503;Laerm;51448;51.660;5.824;2024-01-25T00:50:42;32.86;30.77;35.44;;
60503;Laerm;51448;51.660;5.824;2024-01-25T00:53:10;33.09;30.74;39.50;;
60503;Laerm;51448;51.660;5.824;2024-01-25T00:55:38;32.30;30.43;35.17;;
60503;Laerm;51448;51.660;5.824;2024-01-25T00:58:07;32.42;30.13;39.86;;
60503;Laerm;51448;51.660;5.824;2024-01-25T01:00:35;31.92;29.57;46.54;;
60503;Laerm;51448;51.660;5.824;2024-01-25T01:03:03;31.72;29.65;42.05;;
60503;Laerm;51448;51.660;5.824;2024-01-25T01:05:32;31.61;29.78;38.13;;
60503;Laerm;51448;51.660;5.824;2024-01-25T01:08:00;37.55;29.83;51.81;;
60503;Laerm;51448;51.660;5.824;2024-01-25T01:10:28;31.89;29.72;41.52;;
60503;Laerm;51448;51.660;5.824;2024-01-25T01:12:56;32.23;29.67;51.20;;
60503;Laerm;51448;51.660;5.824;2024-01-25T01:15:23;31.98;30.08;48.33;;
60503;Laerm;51448;51.660;5.824;2024-01-25T01:17:51;33.44;29.88;55.54;;
60503;Laerm;51448;51.660;5.824;2024-01-25T01:20:19;32.19;29.96;46.89;;
60503;Laerm;51448;51.660;5.824;2024-01-25T01:22:47;32.28;29.99;49.99;;
60503;Laerm;51448;51.660;5.824;2024-01-25T01:25:14;32.75;30.09;51.47;;
60503;Laerm;51448;51.660;5.824;2024-01-25T01:27:42;31.89;29.88;46.97;;
60503;Laerm;51448;51.660;5.824;2024-01-25T01:30:11;35.05;29.99;65.11;;
60503;Laerm;51448;51.660;5.824;2024-01-25T01:32:38;32.12;29.78;43.88;;
60503;Laerm;51448;51.660;5.824;2024-01-25T01:35:06;31.89;29.87;48.25;;
60503;Laerm;51448;51.660;5.824;2024-01-25T01:37:34;31.87;29.81;42.23;;
60503;Laerm;51448;51.660;5.824;2024-01-25T01:40:02;31.54;29.59;36.82;;
60503;Laerm;51448;51.660;5.824;2024-01-25T01:42:31;32.03;29.72;44.68;;
60503;Laerm;51448;51.660;5.824;2024-01-25T01:45:00;37.67;29.64;51.39;;
60503;Laerm;51448;51.660;5.824;2024-01-25T01:47:27;31.70;29.79;42.86;;
60503;Laerm;51448;51.660;5.824;2024-01-25T01:49:55;32.11;29.44;45.76;;
60503;Laerm;51448;51.660;5.824;2024-01-25T01:52:23;33.41;29.68;50.74;;
60503;Laerm;51448;51.660;5.824;2024-01-25T01:54:51;33.66;29.96;46.22;;
60503;Laerm;51448;51.660;5.824;2024-01-25T01:57:19;31.76;29.72;37.61;;
60503;Laerm;51448;51.660;5.824;2024-01-25T01:59:46;32.23;29.95;53.13;;
60503;Laerm;51448;51.660;5.824;2024-01-25T02:02:16;33.69;29.69;51.17;;
60503;Laerm;51448;51.660;5.824;2024-01-25T02:04:44;33.45;30.09;47.77;;
60503;Laerm;51448;51.660;5.824;2024-01-25T02:07:12;32.01;30.02;38.34;;
60503;Laerm;51448;51.660;5.824;2024-01-25T02:09:39;32.74;30.09;40.50;;
60503;Laerm;51448;51.660;5.824;2024-01-25T02:12:07;32.23;30.43;37.19;;
60503;Laerm;51448;51.660;5.824;2024-01-25T02:14:36;39.85;30.02;54.10;;
60503;Laerm;51448;51.660;5.824;2024-01-25T02:17:03;32.21;29.84;41.97;;
60503;Laerm;51448;51.660;5.824;2024-01-25T02:19:31;33.68;29.38;43.89;;
60503;Laerm;51448;51.660;5.824;2024-01-25T02:21:59;33.13;29.74;40.63;;
60503;Laerm;51448;51.660;5.824;2024-01-25T02:24:27;33.01;29.89;46.14;;
60503;Laerm;51448;51.660;5.824;2024-01-25T02:26:54;32.18;29.70;37.02;;
60503;Laerm;51448;51.660;5.824;2024-01-25T02:29:22;31.83;29.98;34.93;;
60503;Laerm;51448;51.660;5.824;2024-01-25T02:31:50;32.60;29.95;42.91;;
60503;Laerm;51448;51.660;5.824;2024-01-25T02:34:17;32.14;30.04;37.07;;
60503;Laerm;51448;51.660;5.824;2024-01-25T02:36:45;32.79;29.81;40.31;;
60503;Laerm;51448;51.660;5.824;2024-01-25T02:39:12;32.61;30.16;40.95;;
60503;Laerm;51448;51.660;5.824;2024-01-25T02:41:40;34.29;30.05;44.18;;
60503;Laerm;51448;51.660;5.824;2024-01-25T02:44:08;31.57;29.80;34.07;;
60503;Laerm;51448;51.660;5.824;2024-01-25T02:46:35;32.64;30.01;39.80;;
60503;Laerm;51448;51.660;5.824;2024-01-25T02:49:04;32.43;30.38;35.81;;
60503;Laerm;51448;51.660;5.824;2024-01-25T02:51:32;31.92;30.30;34.88;;
60503;Laerm;51448;51.660;5.824;2024-01-25T02:53:59;32.43;29.96;41.37;;
60503;Laerm;51448;51.660;5.824;2024-01-25T02:56:27;36.89;30.34;48.95;;
60503;Laerm;51448;51.660;5.824;2024-01-25T02:59:03;32.24;30.11;35.80;;
60503;Laerm;51448;51.660;5.824;2024-01-25T03:01:41;33.26;29.76;43.53;;
60503;Laerm;51448;51.660;5.824;2024-01-25T03:04:10;31.50;29.68;33.32;;
60503;Laerm;51448;51.660;5.824;2024-01-25T03:06:38;32.03;29.59;35.36;;
60503;Laerm;51448;51.660;5.824;2024-01-25T03:09:05;31.98;30.00;37.39;;
60503;Laerm;51448;51.660;5.824;2024-01-25T03:11:33;31.55;29.54;36.51;;
60503;Laerm;51448;51.660;5.824;2024-01-25T03:14:00;32.21;30.17;36.44;;
60503;Laerm;51448;51.660;5.824;2024-01-25T03:16:28;32.05;30.05;40.10;;
60503;Laerm;51448;51.660;5.824;2024-01-25T03:18:55;32.60;30.21;37.41;;
60503;Laerm;51448;51.660;5.824;2024-01-25T03:21:23;33.26;30.49;39.23;;
60503;Laerm;51448;51.660;5.824;2024-01-25T03:23:51;34.50;30.56;41.04;;
60503;Laerm;51448;51.660;5.824;2024-01-25T03:26:19;33.09;30.16;37.60;;
60503;Laerm;51448;51.660;5.824;2024-01-25T03:28:46;32.25;29.60;37.91;;
60503;Laerm;51448;51.660;5.824;2024-01-25T03:31:14;37.74;30.23;50.09;;
60503;Laerm;51448;51.660;5.824;2024-01-25T03:33:41;37.89;30.46;47.49;;
60503;Laerm;51448;51.660;5.824;2024-01-25T03:36:09;33.30;30.68;38.10;;
60503;Laerm;51448;51.660;5.824;2024-01-25T03:38:40;37.34;30.88;49.96;;
60503;Laerm;51448;51.660;5.824;2024-01-25T03:41:08;40.25;31.32;55.54;;
60503;Laerm;51448;51.660;5.824;2024-01-25T03:43:36;33.71;30.78;37.91;;
60503;Laerm;51448;51.660;5.824;2024-01-25T03:46:12;33.07;30.42;39.95;;
60503;Laerm;51448;51.660;5.824;2024-01-25T03:48:40;36.02;30.78;42.63;;
60503;Laerm;51448;51.660;5.824;2024-01-25T03:51:08;39.43;30.28;55.34;;
60503;Laerm;51448;51.660;5.824;2024-01-25T03:53:36;35.48;31.18;49.22;;
60503;Laerm;51448;51.660;5.824;2024-01-25T03:56:09;32.22;30.26;38.48;;
60503;Laerm;51448;51.660;5.824;2024-01-25T03:58:38;40.77;30.44;57.17;;
60503;Laerm;51448;51.660;5.824;2024-01-25T04:01:05;36.28;31.55;47.94;;
60503;Laerm;51448;51.660;5.824;2024-01-25T04:03:33;35.18;31.47;43.77;;
60503;Laerm;51448;51.660;5.824;2024-01-25T04:06:02;35.34;31.71;43.49;;
60503;Laerm;51448;51.660;5.824;2024-01-25T04:08:29;35.59;31.24;43.04;;
60503;Laerm;51448;51.660;5.824;2024-01-25T04:10:57;36.31;30.98;42.13;;
60503;Laerm;51448;51.660;5.824;2024-01-25T04:13:24;36.29;31.03;43.26;;
60503;Laerm;51448;51.660;5.824;2024-01-25T04:15:52;37.32;32.74;43.92;;
60503;Laerm;51448;51.660;5.824;2024-01-25T04:18:19;37.87;32.08;47.77;;
60503;Laerm;51448;51.660;5.824;2024-01-25T04:20:47;35.08;30.67;39.68;;
60503;Laerm;51448;51.660;5.824;2024-01-25T04:23:15;40.34;31.08;56.06;;
60503;Laerm;51448;51.660;5.824;2024-01-25T04:25:43;38.10;31.02;49.27;;
60503;Laerm;51448;51.660;5.824;2024-01-25T04:28:11;33.71;30.77;38.89;;
60503;Laerm;51448;51.660;5.824;2024-01-25T04:30:38;37.15;31.90;46.20;;
60503;Laerm;51448;51.660;5.824;2024-01-25T04:33:06;37.22;31.81;47.53;;
60503;Laerm;51448;51.660;5.824;2024-01-25T04:35:34;35.66;32.04;42.20;;
60503;Laerm;51448;51.660;5.824;2024-01-25T04:38:02;37.38;32.26;43.01;;
60503;Laerm;51448;51.660;5.824;2024-01-25T04:40:29;40.07;31.58;54.85;;
60503;Laerm;51448;51.660;5.824;2024-01-25T04:42:57;41.03;32.01;56.36;;
60503;Laerm;51448;51.660;5.824;2024-01-25T04:45:26;35.42;31.75;40.08;;
60503;Laerm;51448;51.660;5.824;2024-01-25T04:47:53;35.60;31.94;41.10;;
60503;Laerm;51448;51.660;5.824;2024-01-25T04:50:21;41.98;32.36;53.84;;
60503;Laerm;51448;51.660;5.824;2024-01-25T04:52:49;37.63;32.89;45.17;;
60503;Laerm;51448;51.660;5.824;2024-01-25T04:55:16;38.60;33.68;49.24;;
60503;Laerm;51448;51.660;5.824;2024-01-25T04:57:44;41.38;31.79;53.58;;
60503;Laerm;51448;51.660;5.824;2024-01-25T05:00:12;38.97;31.14;54.46;;
60503;Laerm;51448;51.660;5.824;2024-01-25T05:02:40;40.57;31.79;55.24;;
60503;Laerm;51448;51.660;5.824;2024-01-25T05:05:07;44.22;31.98;58.45;;
60503;Laerm;51448;51.660;5.824;2024-01-25T05:07:35;38.09;34.31;44.65;;
60503;Laerm;51448;51.660;5.824;2024-01-25T05:10:03;43.31;34.44;56.18;;
60503;Laerm;51448;51.660;5.824;2024-01-25T05:12:31;41.75;33.87;54.83;;
60503;Laerm;51448;51.660;5.824;2024-01-25T05:14:59;37.95;34.21;42.90;;
60503;Laerm;51448;51.660;5.824;2024-01-25T05:17:27;39.96;32.72;53.61;;
60503;Laerm;51448;51.660;5.824;2024-01-25T05:19:54;42.30;33.75;56.35;;
60503;Laerm;51448;51.660;5.824;2024-01-25T05:22:22;45.63;35.22;59.57;;
60503;Laerm;51448;51.660;5.824;2024-01-25T05:24:50;44.32;34.46;55.94;;
60503;Laerm;51448;51.660;5.824;2024-01-25T05:27:18;40.68;34.23;52.55;;
60503;Laerm;51448;51.660;5.824;2024-01-25T05:29:46;38.20;34.03;45.11;;
60503;Laerm;51448;51.660;5.824;2024-01-25T05:32:13;48.83;37.10;59.61;;
60503;Laerm;51448;51.660;5.824;2024-01-25T05:34:41;46.28;36.58;57.71;;
60503;Laerm;51448;51.660;5.824;2024-01-25T05:37:08;48.19;37.57;60.23;;
60503;Laerm;51448;51.660;5.824;2024-01-25T05:39:36;46.98;36.14;58.80;;
60503;Laerm;51448;51.660;5.824;2024-01-25T05:42:04;44.79;36.89;56.58;;
60503;Laerm;51448;51.660;5.824;2024-01-25T05:44:31;46.40;36.60;56.18;;
60503;Laerm;51448;51.660;5.824;2024-01-25T05:46:59;45.67;37.30;56.77;;
60503;Laerm;51448;51.660;5.824;2024-01-25T05:49:27;50.34;37.65;66.42;;
60503;Laerm;51448;51.660;5.824;2024-01-25T05:51:55;47.04;37.40;63.66;;
60503;Laerm;51448;51.660;5.824;2024-01-25T05:54:23;44.88;36.17;56.31;;
60503;Laerm;51448;51.660;5.824;2024-01-25T05:56:50;49.19;38.94;62.87;;
60503;Laerm;51448;51.660;5.824;2024-01-25T05:59:18;45.48;36.08;57.69;;
60503;Laerm;51448;51.660;5.824;2024-01-25T06:01:45;42.82;37.98;52.44;;
60503;Laerm;51448;51.660;5.824;2024-01-25T06:04:13;43.73;36.06;53.09;;
60503;Laerm;51448;51.660;5.824;2024-01-25T06:06:41;48.60;37.17;60.23;;
60503;Laerm;51448;51.660;5.824;2024-01-25T06:09:09;44.98;38.06;54.46;;
60503;Laerm;51448;51.660;5.824;2024-01-25T06:11:40;48.44;38.91;58.49;;
60503;Laerm;51448;51.660;5.824;2024-01-25T06:14:09;42.67;37.19;51.31;;
60503;Laerm;51448;51.660;5.824;2024-01-25T06:16:36;44.43;36.81;53.10;;
60503;Laerm;51448;51.660;5.824;2024-01-25T06:19:04;49.17;38.91;63.56;;
60503;Laerm;51448;51.660;5.824;2024-01-25T06:22:27;46.42;38.24;56.65;;
60503;Laerm;51448;51.660;5.824;2024-01-25T06:24:55;51.64;39.84;79.04;;
60503;Laerm;51448;51.660;5.824;2024-01-25T06:27:22;46.30;39.40;56.95;;
60503;Laerm;51448;51.660;5.824;2024-01-25T06:29:50;45.18;37.19;57.15;;
60503;Laerm;51448;51.660;5.824;2024-01-25T06:32:17;48.17;38.14;57.80;;
60503;Laerm;51448;51.660;5.824;2024-01-25T06:34:53;46.54;38.56;62.89;;
60503;Laerm;51448;51.660;5.824;2024-01-25T06:37:21;58.37;38.71;77.53;;
60503;Laerm;51448;51.660;5.824;2024-01-25T06:39:49;65.24;38.85;82.09;;
60503;Laerm;51448;51.660;5.824;2024-01-25T06:42:17;48.93;39.69;60.61;;
60503;Laerm;51448;51.660;5.824;2024-01-25T06:44:44;51.03;41.74;63.01;;
60503;Laerm;51448;51.660;5.824;2024-01-25T06:47:12;50.92;40.80;68.65;;
60503;Laerm;51448;51.660;5.824;2024-01-25T06:49:40;53.37;39.57;74.27;;
60503;Laerm;51448;51.660;5.824;2024-01-25T06:52:08;54.97;40.44;76.95;;
60503;Laerm;51448;51.660;5.824;2024-01-25T06:54:35;54.29;39.75;75.19;;
60503;Laerm;51448;51.660;5.824;2024-01-25T06:57:03;54.90;38.20;83.10;;
60503;Laerm;51448;51.660;5.824;2024-01-25T06:59:31;47.29;39.26;65.31;;
60503;Laerm;51448;51.660;5.824;2024-01-25T07:01:59;46.46;38.87;58.19;;
60503;Laerm;51448;51.660;5.824;2024-01-25T07:04:29;49.74;38.94;75.54;;
60503;Laerm;51448;51.660;5.824;2024-01-25T07:06:57;46.33;39.00;62.92;;
60503;Laerm;51448;51.660;5.824;2024-01-25T07:09:26;49.78;39.66;64.09;;
60503;Laerm;51448;51.660;5.824;2024-01-25T07:11:53;46.58;38.86;55.97;;
60503;Laerm;51448;51.660;5.824;2024-01-25T07:14:21;46.62;36.70;59.69;;
60503;Laerm;51448;51.660;5.824;2024-01-25T07:16:49;46.81;37.16;57.67;;
60503;Laerm;51448;51.660;5.824;2024-01-25T07:19:17;46.39;40.01;63.65;;
60503;Laerm;51448;51.660;5.824;2024-01-25T07:21:45;47.40;39.83;64.58;;
60503;Laerm;51448;51.660;5.824;2024-01-25T07:24:13;45.23;40.15;56.60;;
60503;Laerm;51448;51.660;5.824;2024-01-25T07:26:41;47.62;39.74;57.38;;
60503;Laerm;51448;51.660;5.824;2024-01-25T07:29:08;48.33;39.45;67.19;;
60503;Laerm;51448;51.660;5.824;2024-01-25T07:31:36;49.61;37.24;60.35;;
60503;Laerm;51448;51.660;5.824;2024-01-25T07:34:03;47.23;37.51;59.08;;
60503;Laerm;51448;51.660;5.824;2024-01-25T07:36:31;46.29;37.66;70.12;;
60503;Laerm;51448;51.660;5.824;2024-01-25T07:38:59;47.23;39.63;66.61;;
60503;Laerm;51448;51.660;5.824;2024-01-25T07:41:27;51.54;40.05;66.47;;
60503;Laerm;51448;51.660;5.824;2024-01-25T07:43:54;47.55;39.44;58.29;;
60503;Laerm;51448;51.660;5.824;2024-01-25T07:46:22;46.74;36.42;57.75;;
60503;Laerm;51448;51.660;5.824;2024-01-25T07:48:51;41.10;36.75;47.10;;
60503;Laerm;51448;51.660;5.824;2024-01-25T07:51:19;47.68;37.69;60.12;;
60503;Laerm;51448;51.660;5.824;2024-01-25T07:53:47;48.34;38.53;59.03;;
60503;Laerm;51448;51.660;5.824;2024-01-25T07:56:14;44.86;36.98;61.49;;
60503;Laerm;51448;51.660;5.824;2024-01-25T07:58:42;45.59;39.18;57.48;;
60503;Laerm;51448;51.660;5.824;2024-01-25T08:01:09;47.19;39.22;60.39;;
60503;Laerm;51448;51.660;5.824;2024-01-25T08:03:37;43.38;36.96;53.05;;
60503;Laerm;51448;51.660;5.824;2024-01-25T08:06:05;46.16;37.07;56.59;;
60503;Laerm;51448;51.660;5.824;2024-01-25T08:08:33;43.80;36.04;57.86;;
60503;Laerm;51448;51.660;5.824;2024-01-25T08:11:01;43.77;35.30;56.79;;
60503;Laerm;51448;51.660;5.824;2024-01-25T08:13:28;44.79;36.48;65.92;;
60503;Laerm;51448;51.660;5.824;2024-01-25T08:16:00;46.19;36.99;60.18;;
60503;Laerm;51448;51.660;5.824;2024-01-25T08:18:28;44.01;35.98;59.70;;
60503;Laerm;51448;51.660;5.824;2024-01-25T08:20:58;40.85;35.87;61.30;;
60503;Laerm;51448;51.660;5.824;2024-01-25T08:23:28;45.90;34.96;59.56;;
60503;Laerm;51448;51.660;5.824;2024-01-25T08:25:56;46.01;35.16;66.23;;
60503;Laerm;51448;51.660;5.824;2024-01-25T08:28:23;45.95;36.04;63.01;;
60503;Laerm;51448;51.660;5.824;2024-01-25T08:30:51;43.65;35.64;61.63;;
60503;Laerm;51448;51.660;5.824;2024-01-25T08:33:18;45.25;35.91;68.04;;
60503;Laerm;51448;51.660;5.824;2024-01-25T08:35:46;43.97;37.05;55.90;;
60503;Laerm;51448;51.660;5.824;2024-01-25T08:38:14;45.33;36.62;56.15;;
60503;Laerm;51448;51.660;5.824;2024-01-25T08:40:41;42.95;37.29;52.94;;
60503;Laerm;51448;51.660;5.824;2024-01-25T08:43:09;47.96;35.83;64.14;;
60503;Laerm;51448;51.660;5.824;2024-01-25T08:45:37;48.50;35.32;60.11;;
60503;Laerm;51448;51.660;5.824;2024-01-25T08:48:06;44.51;35.93;62.65;;
60503;Laerm;51448;51.660;5.824;2024-01-25T08:50:36;47.51;35.86;64.68;;
60503;Laerm;51448;51.660;5.824;2024-01-25T08:53:04;44.55;36.24;68.72;;
60503;Laerm;51448;51.660;5.824;2024-01-25T08:55:32;47.18;34.73;77.21;;
60503;Laerm;51448;51.660;5.824;2024-01-25T08:58:00;43.75;34.36;59.75;;
60503;Laerm;51448;51.660;5.824;2024-01-25T09:00:28;40.29;34.47;51.64;;
60503;Laerm;51448;51.660;5.824;2024-01-25T09:02:55;43.12;34.21;56.30;;
60503;Laerm;51448;51.660;5.824;2024-01-25T09:05:23;41.26;34.08;53.61;;
60503;Laerm;51448;51.660;5.824;2024-01-25T09:07:51;44.01;33.74;59.44;;
60503;Laerm;51448;51.660;5.824;2024-01-25T09:10:19;43.83;34.53;56.28;;
60503;Laerm;51448;51.660;5.824;2024-01-25T09:12:47;43.90;34.68;56.21;;
60503;Laerm;51448;51.660;5.824;2024-01-25T09:15:14;45.18;34.84;60.90;;
60503;Laerm;51448;51.660;5.824;2024-01-25T09:17:42;46.22;35.21;63.73;;
60503;Laerm;51448;51.660;5.824;2024-01-25T09:20:11;42.86;34.20;56.05;;
60503;Laerm;51448;51.660;5.824;2024-01-25T09:22:39;44.57;35.57;62.25;;
60503;Laerm;51448;51.660;5.824;2024-01-25T09:25:07;45.92;34.46;63.87;;
60503;Laerm;51448;51.660;5.824;2024-01-25T09:27:36;43.78;34.29;64.60;;
60503;Laerm;51448;51.660;5.824;2024-01-25T09:30:06;45.00;34.25;60.46;;
60503;Laerm;51448;51.660;5.824;2024-01-25T09:32:34;41.66;35.00;54.88;;
60503;Laerm;51448;51.660;5.824;2024-01-25T09:35:02;44.36;34.02;56.62;;
60503;Laerm;51448;51.660;5.824;2024-01-25T09:37:30;42.68;34.10;54.71;;
60503;Laerm;51448;51.660;5.824;2024-01-25T09:39:58;45.26;34.88;56.69;;
60503;Laerm;51448;51.660;5.824;2024-01-25T09:42:26;41.03;32.93;53.03;;
60503;Laerm;51448;51.660;5.824;2024-01-25T09:44:54;43.18;34.48;55.77;;
60503;Laerm;51448;51.660;5.824;2024-01-25T09:47:22;44.22;36.00;58.35;;
60503;Laerm;51448;51.660;5.824;2024-01-25T09:49:50;43.00;33.61;53.47;;
60503;Laerm;51448;51.660;5.824;2024-01-25T09:52:21;42.32;33.64;53.78;;
60503;Laerm;51448;51.660;5.824;2024-01-25T09:54:53;45.26;33.61;64.74;;
60503;Laerm;51448;51.660;5.824;2024-01-25T09:57:24;47.10;33.95;58.72;;
60503;Laerm;51448;51.660;5.824;2024-01-25T09:59:54;44.99;33.89;55.49;;
60503;Laerm;51448;51.660;5.824;2024-01-25T10:02:23;43.43;32.97;57.49;;
60503;Laerm;51448;51.660;5.824;2024-01-25T10:04:51;46.39;33.74;57.50;;
60503;Laerm;51448;51.660;5.824;2024-01-25T10:07:42;41.73;33.55;58.33;;
60503;Laerm;51448;51.660;5.824;2024-01-25T10:10:12;45.41;33.68;59.98;;
60503;Laerm;51448;51.660;5.824;2024-01-25T10:12:42;39.74;33.66;56.00;;
60503;Laerm;51448;51.660;5.824;2024-01-25T10:15:11;42.82;33.48;56.11;;
60503;Laerm;51448;51.660;5.824;2024-01-25T10:17:39;41.55;33.70;54.28;;
60503;Laerm;51448;51.660;5.824;2024-01-25T10:20:26;39.63;33.14;52.78;;
60503;Laerm;51448;51.660;5.824;2024-01-25T10:22:58;41.88;32.96;54.11;;
60503;Laerm;51448;51.660;5.824;2024-01-25T10:25:27;40.45;32.52;51.20;;
60503;Laerm;51448;51.660;5.824;2024-01-25T10:27:56;43.21;33.18;68.87;;
60503;Laerm;51448;51.660;5.824;2024-01-25T10:30:24;42.69;32.56;70.13;;
60503;Laerm;51448;51.660;5.824;2024-01-25T10:32:53;41.88;32.70;59.53;;
60503;Laerm;51448;51.660;5.824;2024-01-25T10:35:22;38.69;32.61;56.72;;
60503;Laerm;51448;51.660;5.824;2024-01-25T10:37:53;43.86;32.54;57.40;;
60503;Laerm;51448;51.660;5.824;2024-01-25T10:40:22;42.55;33.71;54.76;;
60503;Laerm;51448;51.660;5.824;2024-01-25T10:42:50;42.75;32.07;58.23;;
60503;Laerm;51448;51.660;5.824;2024-01-25T10:45:19;43.21;32.56;59.42;;
60503;Laerm;51448;51.660;5.824;2024-01-25T10:47:50;38.65;32.05;56.24;;
60503;Laerm;51448;51.660;5.824;2024-01-25T10:50:18;46.79;33.05;65.53;;
60503;Laerm;51448;51.660;5.824;2024-01-25T10:52:47;41.57;32.09;55.64;;
60503;Laerm;51448;51.660;5.824;2024-01-25T10:55:16;43.37;32.30;57.38;;
60503;Laerm;51448;51.660;5.824;2024-01-25T10:57:45;51.52;32.46;72.72;;
60503;Laerm;51448;51.660;5.824;2024-01-25T11:00:15;46.05;32.57;65.78;;
60503;Laerm;51448;51.660;5.824;2024-01-25T11:02:45;45.01;34.18;57.15;;
60503;Laerm;51448;51.660;5.824;2024-01-25T11:05:18;47.82;34.03;64.80;;
60503;Laerm;51448;51.660;5.824;2024-01-25T11:07:50;45.49;34.58;60.60;;
60503;Laerm;51448;51.660;5.824;2024-01-25T11:10:23;64.26;35.56;90.74;;
60503;Laerm;51448;51.660;5.824;2024-01-25T11:12:59;50.35;34.31;73.17;;
60503;Laerm;51448;51.660;5.824;2024-01-25T11:15:32;43.25;35.16;58.08;;
60503;Laerm;51448;51.660;5.824;2024-01-25T11:18:03;42.86;34.40;60.17;;
60503;Laerm;51448;51.660;5.824;2024-01-25T11:20:31;44.40;33.49;70.01;;
60503;Laerm;51448;51.660;5.824;2024-01-25T11:23:03;41.31;34.02;53.67;;
60503;Laerm;51448;51.660;5.824;2024-01-25T11:25:36;43.05;33.80;54.23;;
60503;Laerm;51448;51.660;5.824;2024-01-25T11:28:05;42.94;32.31;64.09;;
60503;Laerm;51448;51.660;5.824;2024-01-25T11:30:34;43.87;32.09;68.13;;
60503;Laerm;51448;51.660;5.824;2024-01-25T11:33:06;43.74;32.35;68.60;;
60503;Laerm;51448;51.660;5.824;2024-01-25T11:35:35;43.46;31.60;57.21;;
60503;Laerm;51448;51.660;5.824;2024-01-25T11:38:04;44.78;31.09;65.93;;
60503;Laerm;51448;51.660;5.824;2024-01-25T11:40:31;48.19;31.79;71.55;;
60503;Laerm;51448;51.660;5.824;2024-01-25T11:43:05;45.22;31.09;68.03;;
60503;Laerm;51448;51.660;5.824;2024-01-25T11:45:39;43.21;30.55;70.64;;
60503;Laerm;51448;51.660;5.824;2024-01-25T11:48:11;42.26;31.86;55.48;;
60503;Laerm;51448;51.660;5.824;2024-01-25T11:50:39;44.20;32.14;55.65;;
60503;Laerm;51448;51.660;5.824;2024-01-25T11:53:07;55.59;31.62;84.78;;
60503;Laerm;51448;51.660;5.824;2024-01-25T11:55:35;45.28;31.80;58.55;;
60503;Laerm;51448;51.660;5.824;2024-01-25T11:58:03;41.53;31.13;51.99;;
60503;Laerm;51448;51.660;5.824;2024-01-25T12:00:31;43.48;30.79;61.16;;
60503;Laerm;51448;51.660;5.824;2024-01-25T12:02:59;39.67;31.06;55.21;;
60503;Laerm;51448;51.660;5.824;2024-01-25T12:05:27;43.02;31.36;55.41;;
60503;Laerm;51448;51.660;5.824;2024-01-25T12:07:55;38.54;31.35;59.34;;
60503;Laerm;51448;51.660;5.824;2024-01-25T12:10:22;44.13;31.17;70.34;;
60503;Laerm;51448;51.660;5.824;2024-01-25T12:12:55;47.78;31.56;65.32;;
60503;Laerm;51448;51.660;5.824;2024-01-25T12:15:23;43.11;31.70;64.93;;
60503;Laerm;51448;51.660;5.824;2024-01-25T12:17:50;41.14;32.61;54.75;;
60503;Laerm;51448;51.660;5.824;2024-01-25T12:20:18;40.84;31.83;58.65;;
60503;Laerm;51448;51.660;5.824;2024-01-25T12:22:48;40.35;32.63;53.10;;
60503;Laerm;51448;51.660;5.824;2024-01-25T12:25:16;41.96;33.44;51.80;;
60503;Laerm;51448;51.660;5.824;2024-01-25T12:27:43;43.62;33.75;62.30;;
60503;Laerm;51448;51.660;5.824;2024-01-25T12:30:14;41.68;32.70;52.70;;
60503;Laerm;51448;51.660;5.824;2024-01-25T12:32:42;41.18;32.32;55.55;;
60503;Laerm;51448;51.660;5.824;2024-01-25T12:35:09;42.53;32.48;56.51;;
60503;Laerm;51448;51.660;5.824;2024-01-25T12:37:37;38.48;32.27;51.56;;
60503;Laerm;51448;51.660;5.824;2024-01-25T12:40:06;41.72;32.51;59.82;;
60503;Laerm;51448;51.660;5.824;2024-01-25T12:42:34;42.23;32.09;57.37;;
60503;Laerm;51448;51.660;5.824;2024-01-25T12:45:02;43.70;32.17;63.06;;
60503;Laerm;51448;51.660;5.824;2024-01-25T12:47:30;47.53;33.78;67.71;;
60503;Laerm;51448;51.660;5.824;2024-01-25T12:49:58;39.39;32.77;52.32;;
60503;Laerm;51448;51.660;5.824;2024-01-25T12:52:27;35.53;31.96;47.15;;
60503;Laerm;51448;51.660;5.824;2024-01-25T12:54:54;40.87;31.82;53.47;;
60503;Laerm;51448;51.660;5.824;2024-01-25T12:57:24;47.91;32.73;73.24;;
60503;Laerm;51448;51.660;5.824;2024-01-25T12:59:51;43.29;33.11;55.49;;
60503;Laerm;51448;51.660;5.824;2024-01-25T13:02:19;43.56;32.47;56.15;;
60503;Laerm;51448;51.660;5.824;2024-01-25T13:04:47;42.53;32.49;61.48;;
60503;Laerm;51448;51.660;5.824;2024-01-25T13:07:14;44.30;32.08;59.32;;
60503;Laerm;51448;51.660;5.824;2024-01-25T13:09:42;43.00;32.70;62.49;;
60503;Laerm;51448;51.660;5.824;2024-01-25T13:12:09;43.87;32.65;57.46;;
60503;Laerm;51448;51.660;5.824;2024-01-25T13:14:37;44.07;32.47;55.89;;
60503;Laerm;51448;51.660;5.824;2024-01-25T13:17:05;42.37;33.42;51.82;;
60503;Laerm;51448;51.660;5.824;2024-01-25T13:19:35;42.74;32.83;51.41;;
60503;Laerm;51448;51.660;5.824;2024-01-25T13:22:03;41.70;32.67;55.40;;
60503;Laerm;51448;51.660;5.824;2024-01-25T13:24:30;45.04;32.63;57.34;;
60503;Laerm;51448;51.660;5.824;2024-01-25T13:26:58;41.91;32.22;61.93;;
60503;Laerm;51448;51.660;5.824;2024-01-25T13:29:26;39.36;32.22;59.69;;
60503;Laerm;51448;51.660;5.824;2024-01-25T13:31:53;43.51;32.59;53.27;;
60503;Laerm;51448;51.660;5.824;2024-01-25T13:34:21;37.42;32.72;50.15;;
60503;Laerm;51448;51.660;5.824;2024-01-25T13:36:49;39.69;31.87;51.29;;
60503;Laerm;51448;51.660;5.824;2024-01-25T13:39:16;42.27;31.88;55.66;;
60503;Laerm;51448;51.660;5.824;2024-01-25T13:41:44;56.42;32.47;70.66;;
60503;Laerm;51448;51.660;5.824;2024-01-25T13:44:14;56.21;32.56;72.02;;
60503;Laerm;51448;51.660;5.824;2024-01-25T13:46:42;43.61;32.26;52.77;;
60503;Laerm;51448;51.660;5.824;2024-01-25T13:49:09;41.18;32.41;50.44;;
60503;Laerm;51448;51.660;5.824;2024-01-25T13:51:37;48.87;32.35;72.08;;